createdAt,value
2018-09-12T00:01:49.441Z,2.67
2018-09-12T00:04:17.618Z,2.93
2018-09-12T00:06:46.155Z,3.47
2018-09-12T00:09:14.350Z,2.93
2018-09-12T00:11:42.549Z,2.60
2018-09-12T00:14:11.096Z,2.70
2018-09-12T00:16:39.308Z,2.53
2018-09-12T00:19:07.802Z,2.70
2018-09-12T00:21:36.379Z,2.77
2018-09-12T00:24:04.615Z,2.80
2018-09-12T00:26:32.808Z,2.90
2018-09-12T00:29:01.181Z,2.65
2018-09-12T00:31:29.514Z,2.90
2018-09-12T00:33:57.766Z,2.90
2018-09-12T00:36:26.066Z,2.40
2018-09-12T00:38:54.296Z,2.87
2018-09-12T00:41:22.591Z,2.67
2018-09-12T00:43:50.930Z,2.60
2018-09-12T00:46:19.146Z,2.60
2018-09-12T00:48:47.406Z,3.37
2018-09-12T00:51:15.682Z,3.30
2018-09-12T00:53:44.033Z,2.63
2018-09-12T00:56:12.510Z,2.72
2018-09-12T00:58:41.595Z,3.37
2018-09-12T01:01:09.919Z,3.33
2018-09-12T01:03:38.362Z,2.70
2018-09-12T01:06:07.218Z,2.70
2018-09-12T01:08:35.459Z,2.73
2018-09-12T01:11:03.634Z,3.07
2018-09-12T01:13:31.908Z,2.97
2018-09-12T01:16:00.174Z,3.00
2018-09-12T01:18:29.458Z,2.90
2018-09-12T01:20:57.979Z,2.90
2018-09-12T01:23:26.348Z,2.60
2018-09-12T01:25:54.660Z,2.93
2018-09-12T01:28:22.914Z,2.50
2018-09-12T01:30:51.399Z,2.97
2018-09-12T01:33:19.703Z,2.80
2018-09-12T01:35:47.902Z,2.40
2018-09-12T01:38:16.123Z,3.10
2018-09-12T01:40:45.263Z,2.60
2018-09-12T01:43:13.490Z,3.00
2018-09-12T01:45:41.703Z,3.03
2018-09-12T01:48:09.928Z,2.43
2018-09-12T01:50:38.148Z,3.17
2018-09-12T01:53:06.366Z,2.57
2018-09-12T01:55:34.637Z,2.50
2018-09-12T01:58:02.839Z,2.80
2018-09-12T02:00:36.414Z,2.77
2018-09-12T02:03:05.619Z,2.83
2018-09-12T02:05:34.126Z,2.90
2018-09-12T02:08:02.332Z,2.77
2018-09-12T02:10:30.556Z,2.70
2018-09-12T02:12:59.067Z,3.20
2018-09-12T02:15:27.271Z,3.08
2018-09-12T02:17:55.551Z,3.00
2018-09-12T02:20:23.751Z,2.87
2018-09-12T02:22:51.931Z,2.77
2018-09-12T02:25:20.559Z,2.77
2018-09-12T02:32:41.497Z,3.40
2018-09-12T02:35:10.020Z,2.80
2018-09-12T02:37:38.213Z,3.30
2018-09-12T02:40:07.197Z,2.80
2018-09-12T02:42:36.254Z,2.97
2018-09-12T02:45:05.239Z,3.27
2018-09-12T02:47:38.377Z,3.30
2018-09-12T02:50:09.830Z,3.07
2018-09-12T02:52:38.283Z,3.00
2018-09-12T02:55:07.610Z,3.30
2018-09-12T02:57:35.862Z,3.40
2018-09-12T03:00:04.385Z,3.20
2018-09-12T03:02:33.064Z,3.07
2018-09-12T03:05:01.538Z,3.60
2018-09-12T03:07:29.819Z,2.90
2018-09-12T03:09:58.491Z,3.40
2018-09-12T03:12:26.718Z,3.37
2018-09-12T03:14:54.911Z,2.63
2018-09-12T03:17:23.411Z,3.17
2018-09-12T03:19:51.817Z,3.60
2018-09-12T03:22:20.110Z,3.40
2018-09-12T03:24:48.411Z,3.40
2018-09-12T03:27:16.678Z,3.22
2018-09-12T03:29:44.908Z,3.53
2018-09-12T03:37:08.729Z,3.00
2018-09-12T03:39:37.002Z,3.80
2018-09-12T03:42:05.303Z,3.63
2018-09-12T03:44:33.595Z,3.13
2018-09-12T03:47:01.806Z,3.30
2018-09-12T03:54:23.448Z,3.23
2018-09-12T03:56:51.607Z,3.30
2018-09-12T03:59:19.789Z,3.30
2018-09-12T04:01:48.106Z,3.57
2018-09-12T04:04:16.493Z,3.83
2018-09-12T04:06:44.781Z,3.73
2018-09-12T04:09:13.054Z,3.33
2018-09-12T04:11:41.304Z,3.60
2018-09-12T04:14:09.537Z,3.60
2018-09-12T04:16:37.869Z,3.40
2018-09-12T04:19:06.239Z,3.58
2018-09-12T04:21:34.628Z,3.80
2018-09-12T04:24:02.811Z,3.93
2018-09-12T04:26:31.110Z,3.40
2018-09-12T04:28:59.339Z,3.40
2018-09-12T04:31:28.665Z,4.00
2018-09-12T04:33:57.145Z,4.00
2018-09-12T04:36:25.417Z,4.20
2018-09-12T04:38:53.709Z,3.63
2018-09-12T04:41:22.300Z,3.90
2018-09-12T04:43:50.559Z,3.97
2018-09-12T04:46:19.074Z,4.03
2018-09-12T04:48:47.335Z,3.97
2018-09-12T04:51:15.675Z,4.07
2018-09-12T04:53:44.336Z,3.87
2018-09-12T04:56:12.591Z,3.77
2018-09-12T04:58:40.799Z,3.62
2018-09-12T05:01:08.994Z,4.00
2018-09-12T05:03:37.183Z,3.57
2018-09-12T05:06:05.402Z,3.93
2018-09-12T05:08:34.041Z,3.85
2018-09-12T05:11:02.334Z,3.70
2018-09-12T05:13:30.581Z,3.87
2018-09-12T05:15:58.857Z,3.62
2018-09-12T05:18:27.150Z,3.30
2018-09-12T05:20:55.346Z,4.10
2018-09-12T05:23:23.809Z,3.97
2018-09-12T05:25:52.155Z,4.12
2018-09-12T05:28:20.358Z,3.83
2018-09-12T05:30:48.585Z,3.97
2018-09-12T05:33:16.800Z,4.40
2018-09-12T05:35:45.068Z,3.90
2018-09-12T05:38:13.273Z,4.45
2018-09-12T05:40:41.490Z,4.17
2018-09-12T05:43:10.774Z,4.10
2018-09-12T05:45:38.996Z,4.17
2018-09-12T05:48:08.837Z,4.13
2018-09-12T05:50:37.126Z,4.30
2018-09-12T05:53:05.343Z,4.20
2018-09-12T05:55:33.722Z,4.23
2018-09-12T05:58:01.936Z,4.10
2018-09-12T06:00:30.109Z,4.43
2018-09-12T06:02:58.351Z,4.47
2018-09-12T06:05:26.738Z,4.10
2018-09-12T06:07:55.059Z,4.43
2018-09-12T06:15:17.118Z,4.33
2018-09-12T06:17:45.364Z,4.30
2018-09-12T06:20:13.572Z,4.17
2018-09-12T06:22:41.836Z,4.22
2018-09-12T06:25:10.041Z,4.60
2018-09-12T06:32:32.141Z,4.47
2018-09-12T06:35:00.966Z,4.67
2018-09-12T06:37:29.549Z,4.70
2018-09-12T06:39:57.870Z,4.33
2018-09-12T06:42:26.100Z,4.10
2018-09-12T06:49:49.407Z,4.53
2018-09-12T06:52:19.222Z,4.63
2018-09-12T06:54:47.451Z,5.90
2018-09-12T06:57:15.643Z,5.10
2018-09-12T06:59:44.221Z,5.67
2018-09-12T07:02:12.445Z,5.07
2018-09-12T07:04:40.679Z,5.10
2018-09-12T07:07:08.878Z,5.53
2018-09-12T07:09:37.064Z,5.10
2018-09-12T07:12:05.304Z,5.10
2018-09-12T07:14:33.634Z,5.12
2018-09-12T07:17:01.912Z,5.77
2018-09-12T07:19:30.103Z,5.80
2018-09-12T07:21:58.337Z,5.27
2018-09-12T07:24:26.664Z,5.37
2018-09-12T07:26:54.879Z,5.37
2018-09-12T07:29:23.156Z,5.03
2018-09-12T07:31:51.618Z,5.50
2018-09-12T07:34:19.851Z,5.57
2018-09-12T07:36:48.277Z,5.57
2018-09-12T07:39:16.545Z,5.28
2018-09-12T07:46:38.135Z,5.03
2018-09-12T07:49:07.555Z,4.60
2018-09-12T07:51:35.746Z,4.45
2018-09-12T07:54:03.956Z,4.97
2018-09-12T07:56:32.230Z,4.78
2018-09-12T07:59:01.377Z,4.97
2018-09-12T08:01:30.191Z,4.83
2018-09-12T08:03:58.455Z,5.05
2018-09-12T08:06:26.689Z,5.17
2018-09-12T08:08:54.989Z,5.30
2018-09-12T08:11:23.462Z,5.35
2018-09-12T08:13:51.671Z,5.55
2018-09-12T08:16:19.917Z,5.63
2018-09-12T08:18:48.174Z,5.45
2018-09-12T08:21:16.707Z,5.20
2018-09-12T08:23:44.934Z,5.60
2018-09-12T08:26:13.280Z,4.65
2018-09-12T08:28:41.506Z,5.57
2018-09-12T08:31:09.656Z,6.05
2018-09-12T08:33:37.882Z,5.80
2018-09-12T08:36:06.250Z,5.90
2018-09-12T08:38:35.263Z,6.90
2018-09-12T08:41:03.449Z,6.78
2018-09-12T08:43:31.776Z,8.38
2018-09-12T08:46:00.060Z,9.60
2018-09-12T08:48:28.248Z,8.53
2018-09-12T08:50:56.560Z,9.58
2018-09-12T08:53:24.744Z,9.50
2018-09-12T08:55:53.001Z,7.27
2018-09-12T08:58:21.202Z,6.00
2018-09-12T09:00:49.399Z,5.70
2018-09-12T09:03:17.626Z,5.80
2018-09-12T09:05:45.960Z,5.27
2018-09-12T09:08:14.249Z,5.20
2018-09-12T09:10:42.456Z,4.40
2018-09-12T09:13:10.578Z,4.62
2018-09-12T09:15:38.862Z,3.85
2018-09-12T09:18:07.999Z,4.10
2018-09-12T09:20:36.217Z,4.12
2018-09-12T09:23:04.485Z,4.12
2018-09-12T09:25:32.699Z,4.20
2018-09-12T09:28:00.865Z,3.85
2018-09-12T09:30:30.604Z,3.73
2018-09-12T09:32:58.814Z,4.30
2018-09-12T09:35:27.061Z,3.63
2018-09-12T09:37:55.350Z,3.15
2018-09-12T09:40:23.539Z,3.65
2018-09-12T09:42:51.899Z,3.90
2018-09-12T09:45:20.063Z,3.50
2018-09-12T09:47:48.310Z,3.50
2018-09-12T09:50:16.418Z,3.58
2018-09-12T09:52:44.645Z,3.55
2018-09-12T09:55:12.829Z,3.30
2018-09-12T09:57:41.129Z,3.17
2018-09-12T10:00:15.467Z,3.00
2018-09-12T10:07:46.928Z,2.72
2018-09-12T10:10:15.272Z,2.92
2018-09-12T10:12:43.422Z,2.77
2018-09-12T10:15:11.689Z,2.95
2018-09-12T10:17:39.923Z,2.72
2018-09-12T10:20:08.059Z,2.42
2018-09-12T10:22:36.245Z,3.20
2018-09-12T10:25:04.664Z,2.62
2018-09-12T10:27:33.505Z,3.17
2018-09-12T10:30:03.070Z,3.33
2018-09-12T10:32:31.250Z,3.67
2018-09-12T10:34:59.479Z,3.80
2018-09-12T10:37:27.696Z,3.47
2018-09-12T10:39:56.013Z,3.60
2018-09-12T10:42:24.671Z,3.70
2018-09-12T10:44:52.900Z,2.90
2018-09-12T10:47:25.070Z,3.58
2018-09-12T10:49:53.553Z,4.15
2018-09-12T10:52:22.994Z,3.72
2018-09-12T10:54:51.242Z,3.77
2018-09-12T10:57:19.547Z,3.67
2018-09-12T10:59:47.881Z,3.93
2018-09-12T11:02:16.326Z,3.55
2018-09-12T11:04:44.741Z,4.07
2018-09-12T11:07:12.966Z,3.72
2018-09-12T11:09:41.224Z,4.30
2018-09-12T11:12:09.579Z,4.35
2018-09-12T11:14:38.489Z,4.25
2018-09-12T11:17:06.710Z,4.83
2018-09-12T11:19:35.008Z,5.00
2018-09-12T11:22:03.247Z,4.35
2018-09-12T11:24:31.496Z,4.28
2018-09-12T11:26:59.809Z,4.43
2018-09-12T11:29:28.035Z,4.35
2018-09-12T11:31:56.238Z,5.00
2018-09-12T11:34:24.851Z,4.45
2018-09-12T11:36:52.946Z,4.58
2018-09-12T11:39:21.204Z,3.62
2018-09-12T11:41:49.629Z,3.67
2018-09-12T11:44:17.975Z,3.95
2018-09-12T11:46:46.317Z,4.10
2018-09-12T11:49:14.495Z,4.03
2018-09-12T11:51:42.670Z,4.70
2018-09-12T11:54:11.862Z,4.22
2018-09-12T11:56:40.100Z,4.90
2018-09-12T11:59:08.543Z,4.45
2018-09-12T12:01:36.812Z,4.23
2018-09-12T12:04:04.977Z,4.60
2018-09-12T12:06:33.181Z,3.73
2018-09-12T12:09:01.338Z,3.62
2018-09-12T12:11:31.574Z,4.10
2018-09-12T12:13:59.940Z,4.40
2018-09-12T12:16:29.245Z,4.12
2018-09-12T12:18:57.442Z,3.58
2018-09-12T12:21:25.637Z,4.00
2018-09-12T12:23:53.875Z,4.33
2018-09-12T12:26:22.276Z,3.70
2018-09-12T12:28:50.454Z,3.97
2018-09-12T12:31:18.633Z,3.90
2018-09-12T12:33:46.834Z,4.42
2018-09-12T12:36:15.022Z,4.45
2018-09-12T12:38:43.434Z,6.78
2018-09-12T12:41:11.769Z,6.72
2018-09-12T12:43:40.086Z,6.53
2018-09-12T12:46:08.341Z,7.22
2018-09-12T12:48:36.653Z,7.28
2018-09-12T12:51:05.043Z,6.78
2018-09-12T12:53:34.290Z,6.73
2018-09-12T12:56:03.240Z,23.77
2018-09-12T12:58:31.467Z,24.20
2018-09-12T13:00:59.722Z,6.67
2018-09-12T13:03:28.229Z,7.93
2018-09-12T13:05:56.489Z,10.53
2018-09-12T13:08:24.669Z,6.35
2018-09-12T13:10:52.898Z,7.15
2018-09-12T13:13:21.126Z,9.73
2018-09-12T13:15:49.416Z,7.37
2018-09-12T13:18:17.647Z,6.73
2018-09-12T13:20:45.890Z,5.80
2018-09-12T13:23:14.141Z,5.80
2018-09-12T13:25:42.491Z,6.33
2018-09-12T13:28:10.922Z,6.03
2018-09-12T13:30:39.205Z,6.17
2018-09-12T13:33:07.455Z,5.93
2018-09-12T13:40:29.801Z,5.47
2018-09-12T13:42:58.040Z,5.53
2018-09-12T13:45:26.219Z,5.20
2018-09-12T13:47:54.394Z,6.00
2018-09-12T13:50:22.778Z,5.67
2018-09-12T13:52:50.999Z,4.37
2018-09-12T13:55:19.284Z,4.53
2018-09-12T13:57:47.447Z,4.07
2018-09-12T14:00:15.687Z,4.08
2018-09-12T14:02:43.957Z,3.40
2018-09-12T14:05:12.251Z,3.43
2018-09-12T14:07:40.468Z,3.33
2018-09-12T14:10:08.656Z,3.62
2018-09-12T14:12:36.890Z,3.70
2018-09-12T14:15:05.986Z,4.10
2018-09-12T14:17:34.188Z,5.30
2018-09-12T14:20:02.482Z,5.13
2018-09-12T14:22:30.709Z,5.40
2018-09-12T14:24:59.057Z,5.13
2018-09-12T14:27:27.231Z,5.22
2018-09-12T14:29:55.637Z,4.40
2018-09-12T14:32:23.926Z,4.25
2018-09-12T14:34:52.134Z,4.00
2018-09-12T14:37:20.486Z,3.70
2018-09-12T14:39:48.773Z,3.33
2018-09-12T14:42:17.183Z,3.20
2018-09-12T14:44:45.804Z,3.45
2018-09-12T14:47:14.673Z,4.23
2018-09-12T14:49:43.003Z,3.70
2018-09-12T14:52:15.691Z,4.73
2018-09-12T14:54:43.934Z,5.37
2018-09-12T14:57:12.136Z,7.57
2018-09-12T14:59:41.399Z,7.30
2018-09-12T15:02:09.754Z,7.13
2018-09-12T15:04:38.159Z,7.90
2018-09-12T15:07:06.419Z,8.90
2018-09-12T15:09:34.610Z,7.50
2018-09-12T15:12:02.972Z,5.40
2018-09-12T15:14:31.232Z,3.97
2018-09-12T15:16:59.503Z,3.72
2018-09-12T15:19:27.738Z,4.30
2018-09-12T15:21:56.950Z,4.10
2018-09-12T15:24:25.268Z,4.07
2018-09-12T15:26:54.911Z,3.77
2018-09-12T15:29:23.109Z,3.87
2018-09-12T15:31:51.350Z,3.47
2018-09-12T15:34:19.653Z,2.83
2018-09-12T15:36:48.066Z,2.63
2018-09-12T15:39:16.770Z,2.90
2018-09-12T15:41:44.984Z,2.90
2018-09-12T15:45:14.626Z,2.50
2018-09-12T15:47:42.815Z,2.10
2018-09-12T15:50:10.998Z,1.87
2018-09-12T15:52:39.544Z,1.43
2018-09-12T15:55:07.781Z,1.70
2018-09-12T15:57:37.254Z,1.92
2018-09-12T16:00:05.513Z,1.90
2018-09-12T16:02:33.735Z,1.87
2018-09-12T16:05:02.044Z,1.87
2018-09-12T16:07:30.224Z,1.70
2018-09-12T16:09:58.499Z,1.60
2018-09-12T16:12:26.838Z,1.90
2018-09-12T16:14:55.005Z,1.60
2018-09-12T16:17:23.279Z,1.97
2018-09-12T16:19:51.498Z,2.10
2018-09-12T16:22:20.715Z,2.60
2018-09-12T16:25:15.487Z,2.27
2018-09-12T16:27:44.002Z,2.10
2018-09-12T16:30:12.690Z,2.33
2018-09-12T16:32:40.961Z,2.00
2018-09-12T16:35:09.087Z,2.30
2018-09-12T16:37:37.285Z,2.00
2018-09-12T16:40:05.498Z,2.08
2018-09-12T16:42:34.730Z,2.30
2018-09-12T16:49:55.847Z,2.40
2018-09-12T16:52:24.010Z,2.00
2018-09-12T16:54:52.201Z,2.17
2018-09-12T16:57:20.407Z,2.22
2018-09-12T16:59:48.654Z,2.30
2018-09-12T17:07:09.670Z,2.53
2018-09-12T17:09:37.921Z,2.17
2018-09-12T17:12:06.159Z,2.10
2018-09-12T17:14:34.337Z,2.90
2018-09-12T17:17:02.609Z,3.10
2018-09-12T17:24:23.783Z,3.00
2018-09-12T17:26:52.141Z,3.17
2018-09-12T17:29:20.363Z,2.80
2018-09-12T17:31:48.520Z,2.87
2018-09-12T17:34:16.864Z,2.87
2018-09-12T17:36:46.344Z,2.80
2018-09-12T17:39:14.760Z,3.87
2018-09-12T17:41:43.003Z,3.97
2018-09-12T17:44:11.174Z,3.70
2018-09-12T17:46:39.359Z,3.67
2018-09-12T17:49:07.570Z,3.60
2018-09-12T17:51:35.770Z,3.90
2018-09-12T17:54:03.957Z,4.13
2018-09-12T17:56:32.274Z,5.57
2018-09-12T17:59:00.469Z,4.70
2018-09-12T18:01:28.689Z,4.53
2018-09-12T18:03:56.879Z,5.40
2018-09-12T18:06:25.209Z,5.03
2018-09-12T18:08:53.727Z,4.53
2018-09-12T18:11:22.214Z,6.00
2018-09-12T18:13:50.707Z,5.57
2018-09-12T18:16:19.224Z,6.53
2018-09-12T18:18:47.811Z,6.77
2018-09-12T18:21:16.544Z,6.87
2018-09-12T18:23:45.038Z,6.87
2018-09-12T18:26:13.307Z,6.00
2018-09-12T18:28:41.483Z,5.93
2018-09-12T18:31:09.828Z,5.63
2018-09-12T18:33:38.003Z,5.70
2018-09-12T18:36:06.290Z,5.58
2018-09-12T18:38:34.506Z,5.00
2018-09-12T18:41:02.809Z,4.83
2018-09-12T18:43:31.135Z,4.50
2018-09-12T18:45:59.377Z,5.20
2018-09-12T18:48:28.243Z,5.30
2018-09-12T18:50:56.436Z,4.98
2018-09-12T18:53:25.226Z,6.13
2018-09-12T18:55:54.557Z,5.67
2018-09-12T18:58:22.760Z,6.30
2018-09-12T19:00:50.924Z,6.50
2018-09-12T19:03:19.170Z,7.20
2018-09-12T19:05:47.452Z,6.93
2018-09-12T19:08:15.702Z,8.53
2018-09-12T19:10:43.890Z,7.97
2018-09-12T19:13:12.244Z,9.83
2018-09-12T19:15:40.505Z,9.13
2018-09-12T19:18:08.786Z,10.37
2018-09-12T19:20:50.971Z,10.63
2018-09-12T19:23:21.341Z,10.40
2018-09-12T19:25:51.070Z,9.93
2018-09-12T19:28:22.140Z,10.73
2018-09-12T19:30:51.358Z,10.90
2018-09-12T19:33:19.873Z,10.20
2018-09-12T19:35:48.391Z,10.50
2018-09-12T19:38:17.546Z,11.23
2018-09-12T19:40:45.881Z,10.60
2018-09-12T19:43:18.919Z,11.78
2018-09-12T19:45:51.532Z,11.63
2018-09-12T19:48:21.523Z,11.63
2018-09-12T19:50:51.861Z,11.30
2018-09-12T19:53:22.616Z,11.13
2018-09-12T19:55:55.786Z,11.17
2018-09-12T19:58:25.381Z,10.63
2018-09-12T20:00:59.326Z,10.97
2018-09-12T20:03:31.913Z,10.97
2018-09-12T20:06:05.135Z,11.85
2018-09-12T20:08:36.083Z,11.27
2018-09-12T20:11:06.362Z,12.03
2018-09-12T20:13:40.804Z,12.37
2018-09-12T20:16:11.286Z,12.10
2018-09-12T20:18:41.335Z,11.60
2018-09-12T20:26:06.911Z,12.57
2018-09-12T20:28:41.943Z,13.00
2018-09-12T20:31:13.626Z,14.80
2018-09-12T20:33:46.059Z,13.23
2018-09-12T20:36:17.209Z,12.97
2018-09-12T20:38:48.094Z,13.30
2018-09-12T20:41:21.177Z,13.13
2018-09-12T20:43:49.606Z,13.00
2018-09-12T20:46:18.126Z,12.57
2018-09-12T20:48:47.304Z,13.87
2018-09-12T20:51:15.722Z,12.80
2018-09-12T20:53:44.337Z,13.35
2018-09-12T20:56:12.597Z,13.90
2018-09-12T20:58:42.539Z,15.10
2018-09-12T21:01:11.021Z,14.43
2018-09-12T21:03:39.951Z,14.10
2018-09-12T21:06:08.532Z,14.40
2018-09-12T21:08:36.852Z,14.80
2018-09-12T21:11:05.401Z,13.87
2018-09-12T21:13:34.257Z,14.60
2018-09-12T21:16:02.726Z,15.60
2018-09-12T21:18:31.079Z,14.13
2018-09-12T21:21:00.051Z,16.23
2018-09-12T21:23:28.387Z,16.90
2018-09-12T21:25:57.634Z,17.13
2018-09-12T21:28:26.211Z,17.23
2018-09-12T21:30:55.097Z,17.30
2018-09-12T21:33:31.948Z,18.00
2018-09-12T21:36:01.697Z,15.53
2018-09-12T21:38:31.393Z,16.27
2018-09-12T21:40:59.742Z,16.43
2018-09-12T21:43:29.324Z,17.63
2018-09-12T21:45:57.797Z,17.23
2018-09-12T21:48:26.408Z,18.02
2018-09-12T21:50:54.916Z,17.03
2018-09-12T21:53:24.103Z,16.67
2018-09-12T21:55:54.769Z,17.30
2018-09-12T21:58:24.154Z,16.90
2018-09-12T22:00:52.825Z,16.93
2018-09-12T22:03:21.393Z,16.60
2018-09-12T22:05:50.708Z,16.77
2018-09-12T22:08:20.232Z,17.30
2018-09-12T22:10:51.008Z,16.87
2018-09-12T22:13:19.500Z,17.43
2018-09-12T22:15:48.254Z,17.53
2018-09-12T22:18:16.814Z,16.47
2018-09-12T22:20:45.118Z,16.30
2018-09-12T22:23:13.362Z,15.33
2018-09-12T22:25:41.827Z,16.17
2018-09-12T22:28:10.090Z,14.23
2018-09-12T22:30:38.692Z,12.63
2018-09-12T22:33:07.064Z,12.67
2018-09-12T22:35:35.418Z,13.23
2018-09-12T22:38:03.757Z,11.45
2018-09-12T22:40:32.458Z,10.70
2018-09-12T22:43:01.618Z,11.57
2018-09-12T22:45:30.161Z,11.23
2018-09-12T22:48:01.338Z,10.77
2018-09-12T22:50:29.914Z,10.70
2018-09-12T22:52:58.285Z,10.40
2018-09-12T22:55:26.519Z,10.50
2018-09-12T22:57:54.731Z,10.33
2018-09-12T23:00:23.072Z,11.10
2018-09-12T23:02:51.356Z,10.90
2018-09-12T23:05:20.878Z,10.37
2018-09-12T23:07:49.270Z,9.83
2018-09-12T23:10:17.586Z,10.43
2018-09-12T23:12:46.096Z,9.77
2018-09-12T23:15:14.396Z,9.83
2018-09-12T23:17:42.672Z,10.03
2018-09-12T23:20:10.969Z,10.53
2018-09-12T23:22:39.193Z,9.47
2018-09-12T23:25:07.727Z,8.93
2018-09-12T23:27:37.492Z,10.05
2018-09-12T23:30:05.810Z,9.20
2018-09-12T23:32:34.044Z,9.03
2018-09-12T23:35:02.265Z,8.83
2018-09-12T23:37:30.697Z,8.67
2018-09-12T23:39:59.157Z,8.50
2018-09-12T23:42:27.425Z,8.10
2018-09-12T23:44:55.653Z,8.00
2018-09-12T23:47:23.891Z,7.77
2018-09-12T23:54:52.386Z,7.43
2018-09-12T23:57:20.641Z,7.53
2018-09-12T23:59:48.880Z,7.33
